Time;durP1;ratioP1;P1;durP2;ratioP2;P2;SDS_P1;SDS_P2;PMS_P1;PMS_P2;Temp;Humidity;BMP_temperature;BMP_pressure;BME280_temperature;BME280_humidity;BME280_pressure;Samples;Min_cycle;Max_cycle;Signal;HPM_P1;HPM_P2
2021/09/01 00:06:25;;;;;;;4.50;3.30;;;;;;;12.59;88.88;99284.09;463391;1194;141522;-60
2021/09/01 00:16:31;;;;;;;5.60;4.40;;;;;;;12.56;89.13;99291.00;457646;1194;144905;-60
2021/09/01 00:26:34;;;;;;;5.30;4.30;;;;;;;12.53;89.32;99293.52;472094;1194;141308;-62
2021/09/01 00:36:38;;;;;;;3.60;3.30;;;;;;;12.54;89.63;99292.95;467731;1194;142010;-60
2021/09/01 00:46:41;;;;;;;5.00;4.60;;;;;;;12.56;89.51;99313.01;465476;1194;140569;-60
2021/09/01 00:56:50;;;;;;;6.30;5.40;;;;;;;12.55;89.70;99321.79;472980;1185;141551;-61
2021/09/01 01:06:54;;;;;;;8.70;6.70;;;;;;;12.56;89.40;99327.68;472980;1192;142492;-62
2021/09/01 01:16:57;;;;;;;6.10;5.50;;;;;;;12.57;89.27;99334.83;467968;1193;141951;-60
2021/09/01 01:27:00;;;;;;;7.80;5.90;;;;;;;12.55;89.19;99339.20;472810;1194;141210;-60
2021/09/01 01:37:08;;;;;;;8.80;6.60;;;;;;;12.52;89.18;99344.34;472951;1193;140850;-60
2021/09/01 01:47:12;;;;;;;11.00;7.90;;;;;;;12.48;89.31;99350.43;472109;1194;142072;-61
2021/09/01 01:57:15;;;;;;;7.00;5.50;;;;;;;12.46;89.27;99363.23;472780;1194;141500;-62
2021/09/01 02:07:18;;;;;;;7.90;6.30;;;;;;;12.46;89.24;99360.55;472692;1194;140412;-62
2021/09/01 02:17:21;;;;;;;8.60;6.70;;;;;;;12.43;89.37;99368.21;472155;1194;141127;-62
2021/09/01 02:27:24;;;;;;;5.60;5.10;;;;;;;12.38;89.38;99383.46;472948;1194;141390;-62
2021/09/01 02:37:27;;;;;;;6.00;4.60;;;;;;;12.28;89.30;99392.64;466695;1194;145402;-63
2021/09/01 02:47:30;;;;;;;8.00;5.90;;;;;;;12.19;89.57;99400.00;472118;1195;142383;-62
2021/09/01 02:57:34;;;;;;;7.40;5.90;;;;;;;12.14;89.55;99399.31;472955;1194;140987;-63
2021/09/01 03:07:37;;;;;;;6.00;4.90;;;;;;;12.11;89.79;99400.91;467010;1194;141378;-60
2021/09/01 03:17:41;;;;;;;6.70;5.80;;;;;;;12.10;89.86;99408.54;468067;1195;143992;-61
2021/09/01 03:27:44;;;;;;;8.10;7.10;;;;;;;12.09;90.15;99415.98;463027;1194;141623;-60
2021/09/01 03:37:48;;;;;;;8.70;7.10;;;;;;;12.10;90.11;99426.08;472073;1195;140961;-61
2021/09/01 03:47:51;;;;;;;9.50;7.70;;;;;;;12.11;90.29;99440.06;467790;1194;141584;-60
2021/09/01 03:57:54;;;;;;;11.20;7.10;;;;;;;12.12;90.39;99442.45;470839;1194;141687;-60
2021/09/01 04:07:58;;;;;;;9.50;7.10;;;;;;;12.11;90.65;99459.36;455760;1194;141716;-60
2021/09/01 04:18:01;;;;;;;8.80;6.80;;;;;;;12.10;90.71;99477.30;472816;1194;142092;-62
2021/09/01 04:28:04;;;;;;;9.80;8.60;;;;;;;12.11;90.76;99496.05;472780;1194;142000;-62
2021/09/01 04:38:07;;;;;;;9.50;8.50;;;;;;;12.15;90.72;99512.95;472153;1190;141896;-62
2021/09/01 04:48:11;;;;;;;9.80;8.00;;;;;;;12.21;90.74;99510.93;472612;1194;145031;-63
2021/09/01 04:58:14;;;;;;;9.90;8.90;;;;;;;12.31;90.55;99531.11;472801;1195;140882;-63
2021/09/01 05:08:18;;;;;;;10.90;8.90;;;;;;;12.43;90.36;99536.52;467484;1194;142566;-61
2021/09/01 05:18:22;;;;;;;11.90;8.50;;;;;;;12.54;90.01;99548.23;461927;1194;141422;-62
2021/09/01 05:28:28;;;;;;;11.60;8.90;;;;;;;12.55;89.76;99564.65;466909;1194;141199;-63
2021/09/01 05:38:33;;;;;;;9.70;7.00;;;;;;;12.53;89.55;99572.88;472025;1194;142826;-62
2021/09/01 05:48:38;;;;;;;11.20;8.80;;;;;;;12.62;89.63;99578.24;472773;1195;141881;-62
2021/09/01 05:58:45;;;;;;;8.90;7.40;;;;;;;12.75;89.40;99584.83;471889;1193;164090;-63
2021/09/01 06:08:50;;;;;;;8.10;6.20;;;;;;;12.89;89.05;99596.64;472002;1194;140380;-62
2021/09/01 06:18:53;;;;;;;10.30;6.80;;;;;;;13.16;88.51;99604.67;468959;1194;140515;-62
2021/09/01 06:28:57;;;;;;;10.40;6.40;;;;;;;13.59;87.51;99607.98;465318;1194;141536;-61
2021/09/01 06:39:00;;;;;;;9.10;7.20;;;;;;;13.53;86.95;99615.43;457004;1200;141815;-61
2021/09/01 06:49:03;;;;;;;9.10;6.80;;;;;;;13.51;87.01;99632.48;458352;1194;142433;-61
2021/09/01 06:59:06;;;;;;;8.40;6.00;;;;;;;13.71;86.77;99646.63;456678;1194;142431;-62
2021/09/01 07:09:09;;;;;;;8.10;6.00;;;;;;;14.59;86.24;99655.66;472447;1195;141379;-63
2021/09/01 07:19:13;;;;;;;7.20;5.00;;;;;;;17.59;82.01;99660.55;472642;1194;197432;-61
2021/09/01 07:29:17;;;;;;;6.30;4.70;;;;;;;18.12;76.62;99675.39;471991;1193;141733;-60
2021/09/01 07:39:20;;;;;;;6.00;4.70;;;;;;;17.54;77.29;99688.79;472804;1194;141309;-68
2021/09/01 07:49:23;;;;;;;7.60;4.70;;;;;;;21.13;72.52;99696.19;464243;1194;141395;-61
2021/09/01 07:59:27;;;;;;;7.20;4.20;;;;;;;20.43;69.22;99709.72;463721;1194;140747;-58
2021/09/01 08:09:31;;;;;;;4.80;3.70;;;;;;;20.65;69.01;99716.84;459535;1194;140969;-59
2021/09/01 08:19:34;;;;;;;4.60;3.70;;;;;;;24.08;64.40;99717.49;472628;1194;142191;-63
2021/09/01 08:29:40;;;;;;;6.90;4.20;;;;;;;28.34;56.55;99716.83;471974;1194;141585;-58
2021/09/01 08:39:43;;;;;;;6.60;3.90;;;;;;;25.47;54.57;99718.64;456768;1194;20003871;-69
2021/09/01 08:49:47;;;;;;;6.00;3.20;;;;;;;21.79;57.83;99729.66;471537;1194;140178;-59
2021/09/01 08:59:51;;;;;;;5.70;3.90;;;;;;;20.78;59.06;99734.77;468227;1194;141390;-60
2021/09/01 09:09:54;;;;;;;4.10;3.10;;;;;;;19.32;60.03;99745.72;472642;1194;141156;-63
2021/09/01 09:20:02;;;;;;;5.00;3.20;;;;;;;19.43;60.27;99746.30;471441;1194;140243;-63
2021/09/01 09:30:24;;;;;;;6.80;3.60;;;;;;;19.85;60.19;99756.48;464687;1193;140842;-59
2021/09/01 09:40:28;;;;;;;4.90;3.50;;;;;;;19.86;60.00;99756.61;471552;1194;140304;-62
2021/09/01 09:50:32;;;;;;;4.80;2.90;;;;;;;19.68;58.57;99757.57;471969;1194;141286;-63
2021/09/01 10:00:36;;;;;;;7.00;3.30;;;;;;;19.22;60.12;99772.11;472451;1194;142199;-62
2021/09/01 10:10:39;;;;;;;3.70;2.90;;;;;;;19.71;59.04;99769.98;468066;1191;141752;-61
2021/09/01 10:20:46;;;;;;;4.60;3.50;;;;;;;19.49;58.99;99765.95;467804;1194;194891;-61
2021/09/01 10:31:30;;;;;;;4.90;2.60;;;;;;;19.64;59.64;99772.75;456568;1194;141295;-59
2021/09/01 10:41:33;;;;;;;5.20;3.70;;;;;;;18.27;60.88;99786.98;471310;1194;140488;-59
2021/09/01 10:51:48;;;;;;;6.10;3.80;;;;;;;17.74;63.11;99798.55;468900;1194;140610;-61
2021/09/01 11:02:07;;;;;;;4.60;3.00;;;;;;;18.49;62.77;99808.80;471767;1194;142793;-61
2021/09/01 11:12:14;;;;;;;5.40;4.30;;;;;;;18.88;62.12;99810.09;469401;1196;142091;-60
2021/09/01 11:22:21;;;;;;;6.60;3.00;;;;;;;18.76;61.91;99824.84;469501;1194;141323;-62
2021/09/01 11:32:24;;;;;;;3.70;2.30;;;;;;;18.81;61.24;99827.42;471959;1194;142833;-62
2021/09/01 11:42:28;;;;;;;4.10;3.10;;;;;;;18.61;61.96;99827.38;472741;1194;140918;-63
2021/09/01 11:52:41;;;;;;;3.80;2.30;;;;;;;19.04;61.33;99830.39;471158;1194;141846;-61
2021/09/01 12:02:50;;;;;;;5.80;2.20;;;;;;;18.76;60.29;99846.90;467828;1194;141926;-61
2021/09/01 12:13:12;;;;;;;4.10;2.70;;;;;;;18.72;60.37;99855.36;461449;1194;141533;-60
2021/09/01 12:23:18;;;;;;;7.90;3.40;;;;;;;19.19;59.88;99850.41;471591;1190;143136;-62
2021/09/01 12:33:22;;;;;;;5.00;2.50;;;;;;;19.28;59.46;99856.63;472914;1194;141898;-62
2021/09/01 12:43:26;;;;;;;4.40;2.50;;;;;;;19.12;59.02;99854.25;464001;1194;141377;-60
2021/09/01 12:53:33;;;;;;;5.20;3.30;;;;;;;19.06;58.38;99854.86;472068;1190;141621;-62
2021/09/01 13:03:36;;;;;;;4.20;2.70;;;;;;;18.92;58.77;99845.18;472946;1191;140538;-60
2021/09/01 13:13:40;;;;;;;3.00;2.70;;;;;;;18.96;58.13;99858.44;472596;1194;142677;-61
2021/09/01 13:23:43;;;;;;;4.20;2.70;;;;;;;18.87;58.27;99864.58;472223;1194;207540;-62
2021/09/01 13:33:47;;;;;;;5.10;3.40;;;;;;;19.25;57.90;99853.80;459375;1194;145046;-64
2021/09/01 13:43:50;;;;;;;3.30;2.40;;;;;;;19.42;57.60;99859.05;472034;1194;141224;-67
2021/09/01 13:53:54;;;;;;;2.90;2.30;;;;;;;19.55;56.64;99862.27;467522;1194;140455;-63
2021/09/01 14:03:57;;;;;;;4.10;3.10;;;;;;;19.30;56.89;99871.54;470052;1194;139854;-64
2021/09/01 14:14:00;;;;;;;2.90;2.60;;;;;;;19.09;57.73;99873.56;472244;1193;140882;-66
2021/09/01 14:24:03;;;;;;;2.30;2.10;;;;;;;19.25;57.92;99864.28;472888;1194;141769;-64
2021/09/01 14:34:06;;;;;;;3.90;3.00;;;;;;;19.16;58.12;99860.68;473173;1190;140040;-65
2021/09/01 14:44:09;;;;;;;5.10;2.50;;;;;;;19.29;58.46;99866.55;472094;1194;141065;-64
2021/09/01 14:54:12;;;;;;;6.10;3.10;;;;;;;19.13;58.36;99868.74;472868;1194;144543;-64
2021/09/01 15:04:16;;;;;;;7.00;3.00;;;;;;;18.64;59.08;99868.00;464696;1194;10002057;-65
2021/09/01 15:14:20;;;;;;;3.30;2.90;;;;;;;18.37;59.50;99871.68;469693;1194;142307;-61
2021/09/01 15:24:23;;;;;;;2.80;2.50;;;;;;;18.22;60.30;99867.77;464646;1194;140777;-59
2021/09/01 15:34:28;;;;;;;3.70;2.50;;;;;;;18.08;60.50;99866.73;466322;1194;142028;-59
2021/09/01 15:44:33;;;;;;;2.20;1.80;;;;;;;18.08;59.68;99861.13;456549;1194;140149;-61
2021/09/01 15:54:38;;;;;;;3.70;2.10;;;;;;;17.77;59.22;99866.27;461638;1194;142741;-59
2021/09/01 16:04:45;;;;;;;4.40;1.60;;;;;;;17.63;59.47;99874.59;458997;1194;140394;-66
2021/09/01 16:14:53;;;;;;;3.40;2.20;;;;;;;17.40;59.86;99860.92;460074;1194;142583;-61
2021/09/01 16:24:59;;;;;;;4.10;1.80;;;;;;;17.15;60.67;99852.98;472675;1194;141632;-59
2021/09/01 16:35:06;;;;;;;5.90;2.80;;;;;;;16.94;60.88;99853.02;468876;1194;141560;-63
2021/09/01 16:45:12;;;;;;;5.90;2.20;;;;;;;16.62;61.09;99858.72;471142;1194;142414;-62
2021/09/01 16:55:18;;;;;;;3.50;1.80;;;;;;;16.25;61.35;99862.34;471233;1194;140488;-63
2021/09/01 17:05:22;;;;;;;3.40;2.20;;;;;;;15.91;61.97;99872.88;468976;1194;140502;-62
2021/09/01 17:15:26;;;;;;;2.00;1.60;;;;;;;15.57;62.72;99870.95;472917;1194;144392;-63
2021/09/01 17:25:31;;;;;;;7.10;2.80;;;;;;;15.26;63.54;99886.13;467372;1193;142187;-63
2021/09/01 17:35:34;;;;;;;8.20;2.60;;;;;;;14.99;64.53;99893.67;466852;1195;141486;-63
2021/09/01 17:45:37;;;;;;;6.90;2.20;;;;;;;14.82;65.41;99894.48;472979;1194;142074;-65
2021/09/01 17:55:41;;;;;;;4.00;2.30;;;;;;;14.64;66.21;99900.40;472063;1195;144926;-62
2021/09/01 18:05:45;;;;;;;6.70;2.80;;;;;;;14.53;66.62;99909.34;472926;1194;142609;-64
2021/09/01 18:15:49;;;;;;;5.40;2.20;;;;;;;14.38;67.15;99928.57;471510;1187;141088;-63
2021/09/01 18:25:52;;;;;;;3.50;2.20;;;;;;;14.22;67.75;99941.91;472072;1193;141781;-63
2021/09/01 18:35:56;;;;;;;4.20;2.50;;;;;;;14.02;68.37;99948.98;472827;1194;144337;-63
2021/09/01 18:45:59;;;;;;;3.30;2.70;;;;;;;13.84;69.12;99947.59;472828;1194;141800;-64
2021/09/01 18:56:04;;;;;;;3.70;3.20;;;;;;;13.69;69.70;99955.04;469022;1194;162512;-62
2021/09/01 19:06:15;;;;;;;5.30;2.70;;;;;;;13.54;70.30;99956.94;472789;1194;141702;-63
2021/09/01 19:16:19;;;;;;;3.90;3.30;;;;;;;13.48;70.95;99960.01;465632;1194;140351;-63
2021/09/01 19:26:27;;;;;;;3.40;2.60;;;;;;;13.51;71.43;99961.73;456078;1194;10003260;-63
2021/09/01 19:36:33;;;;;;;10.50;3.50;;;;;;;13.58;71.81;99959.45;472811;1194;141994;-64
2021/09/01 19:46:37;;;;;;;4.40;2.40;;;;;;;13.65;72.07;99964.83;472746;1194;141860;-63
2021/09/01 19:56:44;;;;;;;4.50;2.60;;;;;;;13.63;72.41;99968.80;472809;1194;142495;-64
2021/09/01 20:06:49;;;;;;;4.40;3.20;;;;;;;13.65;72.64;99978.70;462114;1195;141606;-63
2021/09/01 20:16:57;;;;;;;4.20;3.30;;;;;;;13.69;72.87;99974.02;469501;1194;141693;-62
2021/09/01 20:27:01;;;;;;;5.30;3.40;;;;;;;13.71;72.99;99977.58;472603;1194;142094;-63
2021/09/01 20:37:06;;;;;;;3.70;3.20;;;;;;;13.63;73.19;99986.73;472656;1194;141569;-65
2021/09/01 20:47:15;;;;;;;3.70;3.00;;;;;;;13.50;73.46;99988.35;468503;1194;141340;-65
2021/09/01 20:57:25;;;;;;;5.30;3.10;;;;;;;13.21;73.88;99992.95;472770;1194;141278;-63
2021/09/01 21:07:29;;;;;;;4.40;3.20;;;;;;;12.93;74.59;100002.02;460124;1195;145454;-61
2021/09/01 21:17:40;;;;;;;3.70;3.10;;;;;;;12.68;75.22;100008.38;466643;1193;142170;-62
2021/09/01 21:27:48;;;;;;;7.20;3.50;;;;;;;12.50;75.78;100018.86;472251;1195;142563;-62
2021/09/01 21:37:53;;;;;;;5.70;4.50;;;;;;;12.38;76.25;100021.60;466510;1193;141624;-64
2021/09/01 21:47:57;;;;;;;5.30;3.90;;;;;;;12.23;76.58;100025.51;458209;1194;140911;-61
2021/09/01 21:58:01;;;;;;;4.30;3.50;;;;;;;12.04;77.14;100028.98;456970;1201;141692;-63
2021/09/01 22:08:04;;;;;;;7.70;4.10;;;;;;;11.89;77.68;100033.41;456248;1200;140894;-60
2021/09/01 22:18:07;;;;;;;5.20;3.20;;;;;;;11.75;78.10;100041.63;456990;1201;142780;-62
2021/09/01 22:28:12;;;;;;;4.70;4.10;;;;;;;11.70;78.56;100040.37;455980;1194;141738;-63
2021/09/01 22:38:16;;;;;;;6.40;3.80;;;;;;;11.75;78.88;100046.54;461454;1194;141660;-63
2021/09/01 22:48:20;;;;;;;6.20;4.20;;;;;;;11.73;79.01;100046.34;456514;1202;142468;-63
2021/09/01 22:58:24;;;;;;;5.00;4.40;;;;;;;11.62;79.32;100049.46;457469;1194;140468;-62
2021/09/01 23:08:28;;;;;;;5.90;4.10;;;;;;;11.57;79.66;100059.39;456651;1194;140874;-63
2021/09/01 23:18:32;;;;;;;4.50;3.80;;;;;;;11.53;79.90;100065.80;456739;1194;142443;-63
2021/09/01 23:28:35;;;;;;;7.50;4.00;;;;;;;11.48;80.13;100066.94;456276;1194;143527;-62
2021/09/01 23:38:38;;;;;;;5.60;4.00;;;;;;;11.45;80.35;100064.64;455822;1194;141693;-62
2021/09/01 23:48:41;;;;;;;5.70;5.10;;;;;;;11.40;80.55;100060.75;456371;1194;141220;-63
2021/09/01 23:58:45;;;;;;;7.80;4.20;;;;;;;11.33;80.78;100061.17;456281;1194;140659;-61
